createdAt,value
2023-04-16T00:03:09.574Z,9.17
2023-04-16T00:09:10.652Z,9.06
2023-04-16T00:18:12.798Z,8.83
2023-04-16T00:24:00.255Z,8.73
2023-04-16T00:26:45.889Z,8.72
2023-04-16T00:32:33.540Z,8.69
2023-04-16T00:41:43.586Z,8.56
2023-04-16T00:44:29.857Z,8.40
2023-04-16T00:47:15.712Z,8.47
2023-04-16T00:50:03.847Z,8.47
2023-04-16T00:56:36.416Z,8.41
2023-04-16T00:59:23.195Z,8.34
2023-04-16T01:05:10.136Z,8.21
2023-04-16T01:08:00.195Z,8.18
2023-04-16T01:17:14.942Z,8.09
2023-04-16T01:23:08.481Z,7.96
2023-04-16T01:29:09.576Z,7.87
2023-04-16T01:31:55.128Z,7.85
2023-04-16T01:34:40.170Z,7.82
2023-04-16T01:46:51.995Z,7.60
2023-04-16T01:59:41.144Z,7.48
2023-04-16T02:08:49.565Z,7.32
2023-04-16T02:11:35.628Z,7.30
2023-04-16T02:14:57.463Z,7.30
2023-04-16T02:23:57.468Z,7.25
2023-04-16T02:29:35.618Z,7.16
2023-04-16T02:35:37.826Z,7.06
2023-04-16T02:41:46.786Z,7.05
2023-04-16T02:44:32.464Z,7.06
2023-04-16T02:47:17.703Z,7.05
2023-04-16T02:53:18.624Z,6.98
2023-04-16T02:59:05.669Z,6.90
2023-04-16T03:04:43.654Z,6.82
2023-04-16T03:13:47.803Z,6.82
2023-04-16T03:19:50.664Z,6.79
2023-04-16T03:22:36.035Z,6.75
2023-04-16T03:25:40.165Z,6.71
2023-04-16T03:28:25.595Z,6.69
2023-04-16T03:34:12.075Z,6.72
2023-04-16T03:36:57.836Z,6.73
2023-04-16T03:42:58.820Z,6.73
2023-04-16T03:51:46.031Z,6.75
2023-04-16T03:54:32.398Z,6.79
2023-04-16T04:03:40.697Z,6.86
2023-04-16T04:13:48.206Z,6.86
2023-04-16T04:19:27.034Z,6.95
2023-04-16T04:22:12.028Z,7.00
2023-04-16T04:31:04.240Z,7.12
2023-04-16T04:33:50.946Z,7.15
2023-04-16T04:36:36.079Z,7.17
2023-04-16T04:39:21.352Z,7.22
2023-04-16T04:42:06.490Z,7.27
2023-04-16T04:44:51.416Z,7.31
2023-04-16T04:47:51.341Z,7.39
2023-04-16T04:58:00.230Z,7.42
2023-04-16T05:09:48.400Z,7.55
2023-04-16T05:12:33.862Z,7.59
2023-04-16T05:15:19.620Z,7.62
2023-04-16T05:18:04.918Z,7.66
2023-04-16T05:20:50.104Z,7.71
2023-04-16T05:23:35.503Z,7.74
2023-04-16T05:26:20.966Z,7.81
2023-04-16T05:29:06.285Z,7.90
2023-04-16T05:31:51.421Z,8.00
2023-04-16T05:34:36.400Z,8.09
2023-04-16T05:37:21.176Z,8.18
2023-04-16T05:46:07.374Z,8.49
2023-04-16T05:51:52.372Z,8.71
2023-04-16T05:57:33.175Z,8.98
2023-04-16T06:03:25.133Z,9.21
2023-04-16T06:06:10.533Z,9.30
2023-04-16T06:08:55.851Z,9.38
2023-04-16T06:11:43.879Z,9.45
2023-04-16T06:14:29.775Z,9.50
2023-04-16T06:17:14.985Z,9.52
2023-04-16T06:26:30.805Z,9.56
2023-04-16T06:29:15.897Z,9.62
2023-04-16T06:32:03.110Z,9.69
2023-04-16T06:34:48.430Z,9.74
2023-04-16T06:37:33.377Z,9.77
2023-04-16T06:40:18.722Z,9.78
2023-04-16T06:43:03.910Z,9.79
2023-04-16T06:45:49.674Z,9.81
2023-04-16T06:48:35.088Z,9.87
2023-04-16T06:51:20.525Z,9.92
2023-04-16T06:57:05.930Z,10.08
2023-04-16T06:59:51.559Z,10.12
2023-04-16T07:02:37.339Z,10.17
2023-04-16T07:05:22.456Z,10.24
2023-04-16T07:11:23.515Z,10.51
2023-04-16T07:14:10.233Z,10.75
2023-04-16T07:16:55.454Z,11.02
2023-04-16T07:19:40.934Z,11.29
2023-04-16T07:22:27.769Z,11.52
2023-04-16T07:25:14.444Z,11.64
2023-04-16T07:33:55.424Z,12.02
2023-04-16T07:36:40.856Z,12.21
2023-04-16T07:39:31.473Z,12.46
2023-04-16T07:45:06.730Z,13.03
2023-04-16T07:47:52.429Z,13.10
2023-04-16T07:50:37.784Z,13.19
2023-04-16T07:53:23.028Z,13.35
2023-04-16T07:56:08.957Z,13.45
2023-04-16T07:58:54.519Z,13.70
2023-04-16T08:01:39.978Z,14.31
2023-04-16T08:04:26.363Z,14.69
2023-04-16T08:10:13.154Z,14.35
2023-04-16T08:13:00.693Z,14.44
2023-04-16T08:15:46.272Z,14.52
2023-04-16T08:18:31.492Z,14.48
2023-04-16T08:43:37.508Z,14.42
2023-04-16T08:49:45.815Z,14.76
2023-04-16T08:52:34.395Z,14.98
2023-04-16T08:55:36.930Z,15.19
2023-04-16T09:01:19.315Z,15.72
2023-04-16T09:04:07.939Z,16.04
2023-04-16T09:06:55.179Z,16.34
2023-04-16T09:09:43.292Z,16.57
2023-04-16T09:22:07.706Z,17.86
2023-04-16T09:24:53.083Z,17.90
2023-04-16T09:27:39.179Z,17.95
2023-04-16T09:54:52.421Z,18.36
2023-04-16T09:57:52.477Z,18.70
2023-04-16T10:00:43.669Z,19.09
2023-04-16T10:03:34.621Z,19.43
2023-04-16T10:35:41.533Z,17.21
2023-04-16T11:10:42.687Z,20.78
2023-04-16T11:13:27.954Z,21.05
2023-04-16T11:22:42.202Z,21.79
2023-04-16T12:01:51.571Z,22.48
2023-04-16T12:28:39.660Z,22.89
2023-04-16T12:34:36.555Z,22.81
2023-04-16T12:37:32.224Z,22.90
2023-04-16T12:40:28.074Z,22.96
2023-04-16T12:43:20.855Z,23.01
2023-04-16T12:56:05.310Z,22.99
2023-04-16T13:40:49.613Z,21.61
2023-04-16T14:00:39.347Z,18.77
2023-04-16T14:06:26.395Z,18.23
2023-04-16T14:09:12.265Z,18.02
2023-04-16T14:45:19.475Z,16.14
2023-04-16T14:50:58.586Z,15.97
2023-04-16T14:53:44.089Z,15.91
2023-04-16T15:02:38.718Z,15.83
2023-04-16T15:11:03.325Z,15.84
2023-04-16T15:14:04.250Z,15.83
2023-04-16T15:19:42.548Z,15.83
2023-04-16T15:51:00.967Z,16.87
2023-04-16T15:53:47.105Z,16.82
2023-04-16T15:56:32.715Z,16.75
2023-04-16T16:09:04.006Z,16.21
2023-04-16T16:24:57.422Z,15.52
2023-04-16T16:27:43.022Z,15.38
2023-04-16T16:33:39.092Z,15.14
2023-04-16T16:39:38.535Z,14.96
2023-04-16T16:48:33.395Z,14.73
2023-04-16T16:51:18.567Z,14.66
2023-04-16T16:54:03.623Z,14.58
2023-04-16T16:56:49.069Z,14.51
2023-04-16T16:59:37.996Z,14.44
2023-04-16T17:11:26.527Z,14.15
2023-04-16T17:14:12.006Z,14.08
2023-04-16T17:17:15.040Z,14.01
2023-04-16T17:26:08.764Z,13.64
2023-04-16T17:28:54.296Z,13.50
2023-04-16T17:31:39.636Z,13.38
2023-04-16T17:34:25.484Z,13.24
2023-04-16T17:43:19.755Z,12.86
2023-04-16T17:46:05.591Z,12.74
2023-04-16T17:48:50.537Z,12.63
2023-04-16T17:54:45.697Z,12.39
2023-04-16T17:57:31.481Z,12.27
2023-04-16T18:00:17.294Z,12.20
2023-04-16T18:03:02.606Z,12.14
2023-04-16T18:05:47.892Z,12.11
2023-04-16T18:08:35.941Z,12.08
2023-04-16T18:11:20.990Z,12.05
2023-04-16T18:14:09.093Z,12.00
2023-04-16T18:16:54.367Z,11.95
2023-04-16T18:19:42.996Z,11.89
2023-04-16T18:22:28.254Z,11.83
2023-04-16T18:25:13.875Z,11.76
2023-04-16T18:27:59.137Z,11.70
2023-04-16T18:30:44.801Z,11.64
2023-04-16T18:33:52.627Z,11.58
2023-04-16T18:36:35.662Z,11.51
2023-04-16T18:39:42.585Z,11.46
2023-04-16T18:42:44.456Z,11.44
2023-04-16T18:45:34.385Z,11.43
2023-04-16T18:48:19.631Z,11.43
2023-04-16T18:51:04.918Z,11.42
2023-04-16T18:53:50.712Z,11.40
2023-04-16T18:56:36.152Z,11.39
2023-04-16T18:59:21.702Z,11.36
2023-04-16T19:02:06.908Z,11.31
2023-04-16T19:04:52.306Z,11.27
2023-04-16T19:07:37.906Z,11.23
2023-04-16T19:10:54.987Z,11.19
2023-04-16T19:13:40.367Z,11.19
2023-04-16T19:16:25.508Z,11.19
2023-04-16T19:19:10.676Z,11.17
2023-04-16T19:21:56.249Z,11.14
2023-04-16T19:24:41.624Z,11.11
2023-04-16T19:27:28.609Z,11.08
2023-04-16T19:30:14.084Z,11.04
2023-04-16T19:33:01.805Z,11.00
2023-04-16T19:35:47.097Z,10.96
2023-04-16T19:38:32.023Z,10.94
2023-04-16T19:41:17.158Z,10.95
2023-04-16T19:46:59.819Z,11.04
2023-04-16T19:49:45.057Z,11.09
2023-04-16T19:55:23.702Z,11.18
2023-04-16T19:58:09.075Z,11.22
2023-04-16T20:00:55.090Z,11.25
2023-04-16T20:03:40.577Z,11.27
2023-04-16T20:06:26.280Z,11.29
2023-04-16T20:09:11.642Z,11.32
2023-04-16T20:11:57.449Z,11.38
2023-04-16T20:17:28.593Z,11.50
2023-04-16T20:20:15.138Z,11.55
2023-04-16T20:23:07.187Z,11.58
2023-04-16T20:25:52.681Z,11.61
2023-04-16T20:28:37.724Z,11.63
2023-04-16T20:31:22.819Z,11.63
2023-04-16T20:34:08.227Z,11.63
2023-04-16T20:36:54.320Z,11.62
2023-04-16T20:39:41.434Z,11.60
2023-04-16T20:42:27.006Z,11.62
2023-04-16T20:45:12.134Z,11.64
2023-04-16T20:48:00.657Z,11.67
2023-04-16T20:51:09.560Z,11.67
2023-04-16T20:56:37.375Z,11.66
2023-04-16T20:59:23.504Z,11.65
2023-04-16T21:05:26.240Z,11.64
2023-04-16T21:08:12.027Z,11.67
2023-04-16T21:10:57.084Z,11.67
2023-04-16T21:13:43.507Z,11.67
2023-04-16T21:16:29.207Z,11.65
2023-04-16T21:19:14.650Z,11.63
2023-04-16T21:22:01.857Z,11.61
2023-04-16T21:24:47.200Z,11.58
2023-04-16T21:27:32.643Z,11.55
2023-04-16T21:30:17.976Z,11.56
2023-04-16T21:33:03.339Z,11.57
2023-04-16T21:35:52.192Z,11.57
2023-04-16T21:38:37.428Z,11.54
2023-04-16T21:41:22.670Z,11.53
2023-04-16T21:44:08.109Z,11.49
2023-04-16T21:46:53.539Z,11.44
2023-04-16T21:49:38.985Z,11.38
2023-04-16T21:52:24.354Z,11.31
2023-04-16T21:55:09.788Z,11.27
2023-04-16T21:57:55.069Z,11.24
2023-04-16T22:00:39.987Z,11.20
2023-04-16T22:03:30.587Z,11.17
2023-04-16T22:06:16.548Z,11.10
2023-04-16T22:09:01.786Z,11.04
2023-04-16T22:11:47.316Z,11.00
2023-04-16T22:14:36.141Z,10.95
2023-04-16T22:17:21.604Z,10.92
2023-04-16T22:20:16.939Z,10.93
2023-04-16T22:23:02.029Z,10.94
2023-04-16T22:25:47.117Z,10.93
2023-04-16T22:28:32.389Z,10.92
2023-04-16T22:31:17.580Z,10.90
2023-04-16T22:34:03.569Z,10.88
2023-04-16T22:36:49.126Z,10.86
2023-04-16T22:39:34.419Z,10.82
2023-04-16T22:42:19.342Z,10.82
2023-04-16T22:45:05.336Z,10.83
2023-04-16T22:47:50.244Z,10.83
2023-04-16T22:50:35.321Z,10.81
2023-04-16T22:53:20.764Z,10.79
2023-04-16T22:56:06.296Z,10.76
2023-04-16T22:58:52.261Z,10.73
2023-04-16T23:01:37.977Z,10.72
2023-04-16T23:04:37.599Z,10.70
2023-04-16T23:07:24.169Z,10.68
2023-04-16T23:10:09.237Z,10.63
2023-04-16T23:12:54.639Z,10.60
2023-04-16T23:15:39.474Z,10.55
2023-04-16T23:18:24.509Z,10.53
2023-04-16T23:21:09.370Z,10.51
2023-04-16T23:23:56.003Z,10.47
2023-04-16T23:26:41.239Z,10.43
2023-04-16T23:29:26.295Z,10.39
2023-04-16T23:32:11.282Z,10.34
2023-04-16T23:34:56.967Z,10.29
2023-04-16T23:37:41.911Z,10.26
2023-04-16T23:40:26.839Z,10.26
2023-04-16T23:43:12.312Z,10.26
2023-04-16T23:45:57.483Z,10.23
2023-04-16T23:48:42.756Z,10.20
2023-04-16T23:51:27.717Z,10.17
2023-04-16T23:54:12.520Z,10.14
2023-04-16T23:56:57.973Z,10.11
2023-04-16T23:59:43.046Z,10.10
